Time;durP1;ratioP1;P1;durP2;ratioP2;P2;SDS_P1;SDS_P2;PMS_P1;PMS_P2;Temp;Humidity;BMP_temperature;BMP_pressure;BME280_temperature;BME280_humidity;BME280_pressure;Samples;Min_cycle;Max_cycle;Signal;HPM_P1;HPM_P2
2023/06/25 00:00:48;;;;;;;6.57;4.45;;;18.60;99.90;;;;;;5037057;28;20104;-68
2023/06/25 00:03:14;;;;;;;7.15;4.78;;;18.60;99.90;;;;;;5037055;28;20025;-68
2023/06/25 00:05:39;;;;;;;6.47;4.95;;;18.60;99.90;;;;;;5037007;28;20421;-68
2023/06/25 00:08:05;;;;;;;10.00;5.18;;;18.50;99.90;;;;;;5036185;28;20025;-69
2023/06/25 00:10:31;;;;;;;8.73;5.80;;;18.40;99.90;;;;;;5033811;28;20052;-68
2023/06/25 00:12:57;;;;;;;7.57;5.60;;;18.40;99.90;;;;;;5036893;28;20065;-68
2023/06/25 00:15:22;;;;;;;6.80;5.18;;;18.30;99.90;;;;;;5037059;28;20030;-68
2023/06/25 00:17:49;;;;;;;10.68;5.82;;;18.20;99.90;;;;;;5035783;28;20030;-68
2023/06/25 00:20:18;;;;;;;7.07;5.05;;;18.20;99.90;;;;;;5036494;28;20052;-68
2023/06/25 00:22:44;;;;;;;17.00;5.55;;;18.20;99.90;;;;;;5036611;28;20025;-68
2023/06/25 00:25:14;;;;;;;8.02;5.03;;;18.20;99.90;;;;;;5036653;28;20111;-68
2023/06/25 00:27:40;;;;;;;7.25;5.32;;;18.20;99.90;;;;;;5036070;28;20028;-68
2023/06/25 00:30:07;;;;;;;7.63;5.32;;;18.20;99.90;;;;;;5035226;28;20025;-68
2023/06/25 00:32:33;;;;;;;7.63;5.35;;;18.10;99.90;;;;;;5036243;28;20083;-68
2023/06/25 00:35:01;;;;;;;8.35;5.68;;;18.10;99.90;;;;;;5036487;28;20048;-69
2023/06/25 00:37:27;;;;;;;9.30;5.05;;;18.00;99.90;;;;;;5034510;28;20383;-68
2023/06/25 00:39:53;;;;;;;10.43;5.07;;;18.00;99.90;;;;;;5035912;28;20068;-68
2023/06/25 00:42:18;;;;;;;7.72;5.68;;;17.90;99.90;;;;;;5036108;28;20105;-69
2023/06/25 00:44:44;;;;;;;10.77;5.63;;;17.90;99.90;;;;;;5036419;28;20029;-68
2023/06/25 00:47:16;;;;;;;7.05;5.32;;;17.90;99.90;;;;;;5035706;28;20686;-68
2023/06/25 00:49:43;;;;;;;9.18;5.68;;;17.80;99.90;;;;;;5034240;28;20026;-68
2023/06/25 00:52:14;;;;;;;9.27;5.53;;;17.80;99.90;;;;;;5034697;28;20025;-68
2023/06/25 00:54:43;;;;;;;9.75;5.90;;;17.80;99.90;;;;;;5032676;28;20049;-68
2023/06/25 00:57:09;;;;;;;8.55;5.55;;;17.70;99.90;;;;;;5035822;28;20033;-68
2023/06/25 00:59:42;;;;;;;7.28;5.43;;;17.60;99.90;;;;;;5035568;28;20026;-68
2023/06/25 01:02:44;;;;;;;9.90;5.88;;;17.60;99.90;;;;;;5036004;28;20024;-68
2023/06/25 01:05:17;;;;;;;10.25;6.07;;;17.60;99.90;;;;;;5032972;28;20030;-68
2023/06/25 01:07:45;;;;;;;10.98;5.75;;;17.60;99.90;;;;;;5032212;28;20022;-68
2023/06/25 01:10:12;;;;;;;6.88;5.28;;;17.60;99.90;;;;;;5032054;28;20045;-68
2023/06/25 01:12:39;;;;;;;12.63;5.93;;;17.60;99.90;;;;;;5035975;28;20067;-68
2023/06/25 01:15:05;;;;;;;7.95;5.38;;;17.60;99.90;;;;;;5035597;28;20107;-68
2023/06/25 01:17:31;;;;;;;6.95;4.50;;;17.60;99.90;;;;;;5033875;28;20497;-68
2023/06/25 01:19:57;;;;;;;7.53;5.43;;;17.70;99.90;;;;;;5035027;28;20053;-68
2023/06/25 01:22:30;;;;;;;9.27;5.10;;;17.60;99.90;;;;;;5035329;28;20041;-68
2023/06/25 01:24:59;;;;;;;7.10;5.00;;;17.60;99.90;;;;;;5035285;28;20060;-68
2023/06/25 01:27:26;;;;;;;8.45;5.30;;;17.60;99.90;;;;;;5034966;28;20029;-68
2023/06/25 01:29:52;;;;;;;6.63;4.72;;;17.50;99.90;;;;;;5035135;28;20037;-69
2023/06/25 01:32:18;;;;;;;9.88;5.72;;;17.50;99.90;;;;;;5035307;28;20031;-68
2023/06/25 01:34:44;;;;;;;8.07;5.25;;;17.50;99.90;;;;;;5035562;28;20026;-68
2023/06/25 01:37:10;;;;;;;7.63;5.20;;;17.50;99.90;;;;;;5035033;28;20023;-68
2023/06/25 01:39:36;;;;;;;7.32;4.97;;;17.50;99.90;;;;;;5035110;28;20018;-68
2023/06/25 01:42:01;;;;;;;7.97;5.40;;;17.50;99.90;;;;;;5034975;28;20092;-68
2023/06/25 01:44:31;;;;;;;9.48;6.53;;;17.40;99.90;;;;;;5035436;28;20393;-68
2023/06/25 01:46:58;;;;;;;10.88;5.95;;;17.40;99.90;;;;;;5033383;28;20017;-68
2023/06/25 01:49:24;;;;;;;9.70;5.57;;;17.40;99.90;;;;;;5033583;28;20025;-68
2023/06/25 01:51:51;;;;;;;9.13;5.68;;;17.40;99.90;;;;;;5035170;28;20029;-68
2023/06/25 01:54:17;;;;;;;8.70;5.50;;;17.40;99.90;;;;;;5035465;28;20021;-68
2023/06/25 01:56:42;;;;;;;11.68;5.28;;;17.30;99.90;;;;;;5034967;28;20421;-68
2023/06/25 01:59:09;;;;;;;9.70;6.50;;;17.30;99.90;;;;;;5034544;28;20052;-68
2023/06/25 02:01:35;;;;;;;7.95;5.25;;;17.30;99.90;;;;;;5034709;28;20504;-68
2023/06/25 02:04:00;;;;;;;9.50;5.82;;;17.30;99.90;;;;;;5038224;28;20018;-68
2023/06/25 02:06:26;;;;;;;8.35;5.45;;;17.20;99.90;;;;;;5038314;28;20454;-68
2023/06/25 02:08:52;;;;;;;8.60;5.70;;;17.10;99.90;;;;;;5037423;28;20095;-68
2023/06/25 02:11:17;;;;;;;8.75;5.40;;;17.20;99.90;;;;;;5039193;28;20028;-68
2023/06/25 02:13:43;;;;;;;10.63;5.15;;;17.20;99.90;;;;;;5039288;28;20100;-68
2023/06/25 02:16:09;;;;;;;11.82;5.32;;;17.10;99.90;;;;;;5038720;28;20030;-68
2023/06/25 02:18:35;;;;;;;6.60;4.80;;;17.10;99.90;;;;;;5039137;28;20029;-68
2023/06/25 02:21:01;;;;;;;8.80;5.22;;;17.00;99.90;;;;;;5038860;28;20049;-67
2023/06/25 02:23:27;;;;;;;7.53;5.25;;;17.10;99.90;;;;;;5038839;28;20026;-68
2023/06/25 02:25:52;;;;;;;7.15;5.50;;;17.10;99.90;;;;;;5037450;28;20025;-68
2023/06/25 02:28:18;;;;;;;8.15;5.13;;;17.00;99.90;;;;;;5038275;28;20081;-68
2023/06/25 02:30:44;;;;;;;8.32;4.93;;;17.00;99.90;;;;;;5038777;28;20014;-68
2023/06/25 02:33:10;;;;;;;9.57;6.70;;;17.00;99.90;;;;;;5038984;28;20029;-68
2023/06/25 02:35:36;;;;;;;8.20;6.28;;;16.90;99.90;;;;;;5038883;28;20079;-68
2023/06/25 02:38:02;;;;;;;7.45;5.18;;;16.90;99.90;;;;;;5037996;28;20022;-68
2023/06/25 02:40:27;;;;;;;10.50;5.82;;;16.90;99.90;;;;;;5037379;28;20079;-68
2023/06/25 02:42:54;;;;;;;13.23;5.53;;;16.70;99.90;;;;;;5038540;28;20032;-68
2023/06/25 02:45:19;;;;;;;8.55;5.40;;;16.80;99.90;;;;;;5038693;28;20025;-68
2023/06/25 02:47:45;;;;;;;8.52;5.95;;;16.80;99.90;;;;;;5037921;28;20071;-68
2023/06/25 02:50:11;;;;;;;9.55;5.68;;;16.80;99.90;;;;;;5037826;28;20021;-68
2023/06/25 02:52:37;;;;;;;10.23;5.85;;;16.80;99.90;;;;;;5037261;28;20060;-68
2023/06/25 02:55:03;;;;;;;10.00;5.72;;;16.80;99.90;;;;;;5038008;28;20021;-68
2023/06/25 02:57:29;;;;;;;7.70;5.18;;;16.70;99.90;;;;;;5037947;28;20039;-68
2023/06/25 02:59:58;;;;;;;10.95;6.00;;;16.70;99.90;;;;;;5037756;28;20017;-68
2023/06/25 03:02:24;;;;;;;8.80;5.30;;;16.60;99.90;;;;;;5037585;28;20075;-68
2023/06/25 03:04:50;;;;;;;6.13;4.85;;;16.60;99.90;;;;;;5037750;28;20532;-68
2023/06/25 03:07:16;;;;;;;8.25;5.32;;;16.60;99.90;;;;;;5037450;28;20456;-68
2023/06/25 03:09:42;;;;;;;9.85;5.85;;;16.60;99.90;;;;;;5037097;28;20017;-68
2023/06/25 03:12:09;;;;;;;7.72;5.63;;;16.60;99.90;;;;;;5037923;28;20030;-68
2023/06/25 03:14:36;;;;;;;8.07;4.90;;;16.60;99.90;;;;;;5037650;28;20028;-68
2023/06/25 03:17:03;;;;;;;6.72;5.53;;;16.50;99.90;;;;;;5036044;28;20112;-68
2023/06/25 03:19:29;;;;;;;7.97;5.43;;;16.50;99.90;;;;;;5037375;28;20025;-68
2023/06/25 03:21:54;;;;;;;7.28;5.15;;;16.50;99.90;;;;;;5037937;28;20484;-68
2023/06/25 03:24:20;;;;;;;9.85;5.80;;;16.50;99.90;;;;;;5037897;28;20017;-68
2023/06/25 03:26:46;;;;;;;12.20;5.55;;;16.50;99.90;;;;;;5036646;28;20033;-68
2023/06/25 03:29:11;;;;;;;7.82;5.15;;;16.50;99.90;;;;;;5036172;28;20017;-68
2023/06/25 03:31:37;;;;;;;7.70;5.60;;;16.50;99.90;;;;;;5037671;28;20085;-68
2023/06/25 03:34:02;;;;;;;7.47;5.65;;;16.40;99.90;;;;;;5037728;28;20478;-68
2023/06/25 03:36:28;;;;;;;6.47;4.88;;;16.40;99.90;;;;;;5037947;28;20033;-68
2023/06/25 03:38:54;;;;;;;8.00;5.47;;;16.30;99.90;;;;;;5036723;28;20029;-68
2023/06/25 03:41:20;;;;;;;7.35;5.13;;;16.40;99.90;;;;;;5037579;28;21951;-68
2023/06/25 03:43:45;;;;;;;9.27;5.57;;;16.30;99.90;;;;;;5037387;28;20073;-68
2023/06/25 03:46:11;;;;;;;7.65;5.03;;;16.30;99.90;;;;;;5036105;28;20063;-68
2023/06/25 03:48:37;;;;;;;7.45;5.55;;;16.30;99.90;;;;;;5036659;28;20022;-68
2023/06/25 03:51:03;;;;;;;8.05;5.65;;;16.30;99.90;;;;;;5037390;28;20018;-68
2023/06/25 03:53:29;;;;;;;8.10;5.60;;;16.30;99.90;;;;;;5037438;28;20022;-68
2023/06/25 03:55:55;;;;;;;7.85;5.65;;;16.30;99.90;;;;;;5037204;28;20033;-68
2023/06/25 03:58:20;;;;;;;9.05;6.13;;;16.20;99.90;;;;;;5036423;28;20030;-68
2023/06/25 04:00:46;;;;;;;8.77;5.65;;;16.30;99.90;;;;;;5037013;28;20029;-68
2023/06/25 04:03:12;;;;;;;6.15;4.75;;;16.20;99.90;;;;;;5037012;28;20100;-68
2023/06/25 04:05:37;;;;;;;8.45;5.70;;;16.20;99.90;;;;;;5037336;28;20512;-68
2023/06/25 04:08:03;;;;;;;8.57;5.63;;;16.20;99.90;;;;;;5036196;28;20017;-68
2023/06/25 04:10:29;;;;;;;12.10;6.13;;;16.20;99.90;;;;;;5036923;28;20037;-68
2023/06/25 04:12:55;;;;;;;6.25;5.53;;;16.20;99.90;;;;;;5036591;28;20113;-68
2023/06/25 04:15:20;;;;;;;8.00;5.65;;;16.10;99.90;;;;;;5036909;28;20029;-68
2023/06/25 04:17:47;;;;;;;10.57;5.82;;;16.20;99.90;;;;;;5036043;28;20489;-68
2023/06/25 04:20:13;;;;;;;8.65;6.40;;;16.20;99.90;;;;;;5036365;28;20053;-68
2023/06/25 04:22:38;;;;;;;7.40;5.13;;;16.20;99.90;;;;;;5036853;28;20018;-68
2023/06/25 04:25:05;;;;;;;7.15;5.07;;;16.20;99.90;;;;;;5036031;28;20383;-68
2023/06/25 04:27:30;;;;;;;6.82;5.60;;;16.20;99.90;;;;;;5036240;28;20033;-68
2023/06/25 04:29:56;;;;;;;7.35;5.47;;;16.20;99.90;;;;;;5036336;28;20445;-68
2023/06/25 04:32:22;;;;;;;7.13;5.00;;;16.20;99.90;;;;;;5034970;28;20564;-68
2023/06/25 04:34:47;;;;;;;7.18;5.35;;;16.20;99.90;;;;;;5036538;28;20077;-68
2023/06/25 04:37:13;;;;;;;9.13;5.82;;;16.30;99.90;;;;;;5035975;28;20401;-68
2023/06/25 04:39:40;;;;;;;6.95;5.78;;;16.30;99.90;;;;;;5036393;28;20029;-68
2023/06/25 04:42:06;;;;;;;8.15;5.60;;;16.30;99.90;;;;;;5034903;28;20013;-68
2023/06/25 04:44:32;;;;;;;10.02;5.63;;;16.40;99.90;;;;;;5036350;28;20033;-68
2023/06/25 04:46:57;;;;;;;8.07;5.40;;;16.40;99.90;;;;;;5035551;28;20013;-68
2023/06/25 04:49:23;;;;;;;6.38;5.47;;;16.50;99.90;;;;;;5036020;28;20029;-68
2023/06/25 04:51:49;;;;;;;7.95;5.50;;;16.50;99.90;;;;;;5036281;28;20018;-68
2023/06/25 04:54:15;;;;;;;7.10;5.43;;;16.50;99.90;;;;;;5036275;28;20520;-68
2023/06/25 04:56:40;;;;;;;7.68;5.25;;;16.60;99.90;;;;;;5034647;28;20030;-68
2023/06/25 04:59:06;;;;;;;7.57;5.60;;;16.70;99.90;;;;;;5035148;28;20052;-68
2023/06/25 05:01:32;;;;;;;12.02;5.03;;;16.70;99.90;;;;;;5032033;28;20076;-68
2023/06/25 05:03:58;;;;;;;7.93;5.00;;;16.80;99.90;;;;;;5036521;28;20029;-68
2023/06/25 05:06:24;;;;;;;6.10;4.97;;;16.90;99.90;;;;;;5036360;28;20029;-68
2023/06/25 05:08:49;;;;;;;10.35;5.68;;;16.90;99.90;;;;;;5035769;28;20112;-68
2023/06/25 05:11:15;;;;;;;8.98;5.35;;;17.00;99.90;;;;;;5036223;28;20040;-68
2023/06/25 05:13:41;;;;;;;6.40;5.68;;;17.10;99.90;;;;;;5034002;28;20021;-68
2023/06/25 05:16:07;;;;;;;7.80;5.35;;;17.10;99.90;;;;;;5035719;28;20029;-68
2023/06/25 05:18:32;;;;;;;7.38;5.45;;;17.20;99.90;;;;;;5035707;28;20057;-68
2023/06/25 05:20:58;;;;;;;6.32;4.82;;;17.30;99.90;;;;;;5035749;28;20045;-68
2023/06/25 05:23:25;;;;;;;7.70;5.53;;;17.40;99.90;;;;;;5036288;28;20490;-68
2023/06/25 05:25:51;;;;;;;7.88;5.55;;;17.50;99.90;;;;;;5035776;28;20052;-68
2023/06/25 05:28:17;;;;;;;11.23;5.85;;;17.60;99.90;;;;;;5036174;28;20026;-68
2023/06/25 05:30:43;;;;;;;7.47;5.97;;;17.60;99.90;;;;;;5033847;28;20025;-68
2023/06/25 05:33:08;;;;;;;8.55;5.70;;;17.70;99.90;;;;;;5036104;28;20438;-68
2023/06/25 05:35:34;;;;;;;6.90;5.30;;;17.90;99.90;;;;;;5035812;28;20394;-68
2023/06/25 05:38:00;;;;;;;7.20;5.45;;;17.90;99.90;;;;;;5034968;28;20013;-68
2023/06/25 05:40:26;;;;;;;8.63;5.88;;;18.10;99.90;;;;;;5035787;28;20084;-68
2023/06/25 05:42:54;;;;;;;7.07;5.60;;;18.20;99.90;;;;;;5035503;28;20031;-68
2023/06/25 05:45:20;;;;;;;6.82;4.97;;;18.30;99.90;;;;;;5035851;28;20036;-68
2023/06/25 05:47:45;;;;;;;8.60;5.63;;;18.40;99.90;;;;;;5035440;28;20096;-68
2023/06/25 05:50:11;;;;;;;9.77;5.57;;;18.50;99.90;;;;;;5035369;28;20059;-68
2023/06/25 05:52:37;;;;;;;7.93;5.38;;;18.60;99.90;;;;;;5035882;28;20144;-68
2023/06/25 05:55:03;;;;;;;7.78;5.82;;;18.80;99.90;;;;;;5034191;28;20033;-68
2023/06/25 05:57:28;;;;;;;7.90;5.68;;;18.90;99.90;;;;;;5035537;28;20021;-68
2023/06/25 05:59:54;;;;;;;11.18;5.65;;;19.10;99.90;;;;;;5034855;28;20053;-68
2023/06/25 06:02:20;;;;;;;7.97;5.25;;;19.20;99.90;;;;;;5035759;28;20049;-68
2023/06/25 06:04:45;;;;;;;8.80;5.95;;;19.30;99.90;;;;;;5035536;28;20032;-68
2023/06/25 06:07:11;;;;;;;6.18;5.00;;;19.50;99.90;;;;;;5034039;28;20029;-68
2023/06/25 06:09:37;;;;;;;7.80;5.70;;;19.60;99.90;;;;;;5035365;28;20033;-68
2023/06/25 06:12:02;;;;;;;7.55;5.53;;;19.60;99.90;;;;;;5035157;28;20105;-68
2023/06/25 06:14:28;;;;;;;8.35;5.88;;;19.70;99.90;;;;;;5035555;28;20041;-68
2023/06/25 06:16:54;;;;;;;6.97;5.38;;;19.80;99.90;;;;;;5034860;28;20378;-68
2023/06/25 06:19:19;;;;;;;9.20;5.63;;;19.90;99.90;;;;;;5035155;28;20029;-68
2023/06/25 06:21:45;;;;;;;8.40;6.18;;;20.00;99.90;;;;;;5035423;28;20033;-68
2023/06/25 06:24:10;;;;;;;8.10;5.63;;;20.10;99.90;;;;;;5035491;28;20084;-68
2023/06/25 06:26:36;;;;;;;6.90;5.20;;;20.20;99.90;;;;;;5033919;28;20026;-68
2023/06/25 06:29:03;;;;;;;11.48;6.15;;;20.30;99.90;;;;;;5033373;28;20033;-68
2023/06/25 06:31:31;;;;;;;6.63;5.07;;;20.40;99.90;;;;;;5035318;28;20104;-68
2023/06/25 06:33:57;;;;;;;8.52;5.03;;;20.50;99.90;;;;;;5035391;28;20485;-67
2023/06/25 06:36:23;;;;;;;7.95;5.22;;;20.50;99.90;;;;;;5035233;28;20044;-68
2023/06/25 06:38:48;;;;;;;8.15;5.75;;;20.70;99.90;;;;;;5034573;28;20512;-68
2023/06/25 06:41:14;;;;;;;9.57;5.82;;;20.70;99.90;;;;;;5035322;28;20021;-68
2023/06/25 06:43:40;;;;;;;7.78;5.97;;;20.70;99.90;;;;;;5035092;28;20076;-68
2023/06/25 06:46:05;;;;;;;8.70;5.90;;;20.80;99.90;;;;;;5035072;28;20018;-68
2023/06/25 06:48:31;;;;;;;11.15;6.75;;;20.80;99.90;;;;;;5035030;28;20025;-68
2023/06/25 06:50:57;;;;;;;7.97;6.18;;;20.90;99.90;;;;;;5037623;28;20028;-67
2023/06/25 06:53:22;;;;;;;11.10;6.40;;;21.00;99.90;;;;;;5039015;28;20125;-68
2023/06/25 06:55:48;;;;;;;12.45;5.90;;;21.00;99.90;;;;;;5038797;28;20025;-68
2023/06/25 06:58:13;;;;;;;11.02;5.15;;;21.10;99.90;;;;;;5038308;28;20785;-68
2023/06/25 07:00:39;;;;;;;10.55;6.00;;;21.20;99.90;;;;;;5038168;28;20025;-68
2023/06/25 07:03:05;;;;;;;13.05;5.80;;;21.40;99.90;;;;;;5038861;28;20085;-68
2023/06/25 07:05:30;;;;;;;14.32;6.00;;;21.50;99.90;;;;;;5038676;28;20033;-67
2023/06/25 07:07:56;;;;;;;7.82;6.07;;;21.60;99.90;;;;;;5038681;28;20018;-68
2023/06/25 07:10:22;;;;;;;6.82;5.40;;;21.70;99.90;;;;;;5038190;28;20062;-68
2023/06/25 07:12:47;;;;;;;7.85;5.72;;;21.60;99.90;;;;;;5037595;28;20018;-68
2023/06/25 07:15:13;;;;;;;8.38;5.55;;;21.80;99.90;;;;;;5038591;28;20036;-68
2023/06/25 07:17:39;;;;;;;5.68;5.07;;;21.80;99.90;;;;;;5036576;28;20033;-68
2023/06/25 07:20:06;;;;;;;7.63;5.80;;;21.90;99.90;;;;;;5037891;28;20040;-68
2023/06/25 07:22:33;;;;;;;6.63;5.10;;;21.90;99.90;;;;;;5038242;28;20569;-68
2023/06/25 07:24:59;;;;;;;10.82;5.60;;;22.10;99.90;;;;;;5037965;28;20026;-68
2023/06/25 07:27:25;;;;;;;6.32;5.30;;;22.30;99.90;;;;;;5037392;28;20018;-68
2023/06/25 07:29:51;;;;;;;8.60;5.30;;;22.60;99.90;;;;;;5037852;28;20024;-68
2023/06/25 07:32:16;;;;;;;9.32;5.68;;;22.80;99.90;;;;;;5038133;28;20021;-68
2023/06/25 07:34:42;;;;;;;6.13;4.95;;;23.00;99.90;;;;;;5038022;28;20025;-68
2023/06/25 07:37:07;;;;;;;7.38;4.82;;;23.10;99.90;;;;;;5037529;28;20026;-68
2023/06/25 07:39:33;;;;;;;8.40;5.47;;;23.20;99.90;;;;;;5037676;28;20049;-68
2023/06/25 07:41:59;;;;;;;8.00;4.55;;;23.30;99.90;;;;;;5038241;28;20575;-68
2023/06/25 07:44:26;;;;;;;5.93;4.72;;;23.40;99.90;;;;;;5037818;28;20014;-68
2023/06/25 07:46:52;;;;;;;7.45;5.13;;;23.40;99.90;;;;;;5037950;28;20028;-68
2023/06/25 07:49:18;;;;;;;6.40;5.40;;;23.50;99.90;;;;;;5036771;28;20045;-68
2023/06/25 07:51:50;;;;;;;6.22;4.53;;;23.70;99.90;;;;;;5037829;28;20029;-68
2023/06/25 07:54:15;;;;;;;7.85;4.63;;;23.80;99.90;;;;;;5037699;28;20021;-70
2023/06/25 07:56:41;;;;;;;5.38;4.45;;;23.80;99.90;;;;;;5037006;28;20040;-68
2023/06/25 07:59:07;;;;;;;8.75;5.00;;;24.00;99.90;;;;;;5033088;28;20025;-68
2023/06/25 08:01:33;;;;;;;6.28;5.22;;;24.10;99.90;;;;;;5036041;28;20390;-68
2023/06/25 08:03:59;;;;;;;6.65;4.60;;;24.10;99.90;;;;;;5034090;28;20040;-68
2023/06/25 08:06:24;;;;;;;7.00;4.55;;;24.30;99.90;;;;;;5031851;28;20025;-69
2023/06/25 08:08:50;;;;;;;7.72;4.63;;;24.40;99.90;;;;;;5035755;28;20482;-68
2023/06/25 08:11:16;;;;;;;7.00;4.32;;;24.60;99.90;;;;;;5033763;28;20367;-69
2023/06/25 08:13:41;;;;;;;5.50;4.30;;;24.80;99.90;;;;;;5034780;28;20033;-69
2023/06/25 08:16:07;;;;;;;7.68;4.43;;;24.80;99.90;;;;;;5034330;28;20497;-67
2023/06/25 08:18:32;;;;;;;5.93;4.03;;;25.00;99.90;;;;;;5035050;28;20040;-68
2023/06/25 08:20:58;;;;;;;6.97;4.35;;;25.10;99.90;;;;;;5030034;28;20429;-68
2023/06/25 08:23:24;;;;;;;5.68;4.25;;;25.20;99.90;;;;;;5033630;28;20410;-68
2023/06/25 08:25:49;;;;;;;5.90;4.43;;;25.30;99.90;;;;;;5033904;28;20512;-68
2023/06/25 08:28:15;;;;;;;6.22;4.32;;;25.40;99.90;;;;;;5036387;28;20018;-68
2023/06/25 08:30:41;;;;;;;6.53;4.95;;;25.50;99.90;;;;;;5029820;28;20053;-69
2023/06/25 08:33:06;;;;;;;6.50;4.38;;;25.60;99.90;;;;;;5034964;28;20057;-69
2023/06/25 08:35:32;;;;;;;8.27;4.43;;;25.70;99.90;;;;;;5035854;28;20021;-68
2023/06/25 08:37:58;;;;;;;5.85;4.35;;;25.90;99.90;;;;;;5036837;28;20026;-67
2023/06/25 08:40:26;;;;;;;7.47;4.20;;;26.10;99.90;;;;;;5036333;28;20029;-68
2023/06/25 08:42:52;;;;;;;6.13;4.00;;;26.20;99.90;;;;;;5036847;28;20067;-68
2023/06/25 08:45:18;;;;;;;6.22;3.72;;;26.20;99.90;;;;;;5036615;28;20025;-68
2023/06/25 08:47:48;;;;;;;6.78;4.35;;;26.30;99.90;;;;;;5037128;28;20028;-67
2023/06/25 08:50:14;;;;;;;;;;;26.40;99.90;;;;;;5038182;28;20022;-68
2023/06/25 08:52:40;;;;;;;6.70;4.43;;;26.50;99.90;;;;;;5037925;28;20001;-68
2023/06/25 08:55:09;;;;;;;4.70;3.80;;;26.60;99.90;;;;;;5036268;28;20073;-68
2023/06/25 08:57:36;;;;;;;9.52;4.32;;;26.60;99.90;;;;;;5037784;28;20017;-68
2023/06/25 09:00:02;;;;;;;5.20;4.15;;;26.80;99.90;;;;;;5036308;28;20071;-68
2023/06/25 09:02:28;;;;;;;5.20;4.30;;;26.90;99.90;;;;;;5037340;28;20021;-68
2023/06/25 09:05:02;;;;;;;5.22;3.97;;;27.00;99.90;;;;;;5037480;28;20021;-68
2023/06/25 09:07:28;;;;;;;6.40;3.60;;;27.10;99.90;;;;;;5037672;28;20021;-68
2023/06/25 09:09:54;;;;;;;6.53;3.80;;;27.20;99.90;;;;;;5037426;28;20017;-68
2023/06/25 09:12:23;;;;;;;6.18;4.00;;;27.30;99.90;;;;;;5037114;28;20083;-68
2023/06/25 09:14:49;;;;;;;9.07;3.90;;;27.40;99.90;;;;;;5035401;28;20025;-68
2023/06/25 09:17:20;;;;;;;7.80;4.72;;;27.50;99.90;;;;;;5037119;28;20041;-68
2023/06/25 09:19:46;;;;;;;7.35;4.22;;;27.50;99.90;;;;;;5036077;28;20052;-69
2023/06/25 09:22:12;;;;;;;7.50;3.90;;;27.60;99.90;;;;;;5037273;28;20029;-69
2023/06/25 09:24:42;;;;;;;4.60;3.58;;;27.80;99.90;;;;;;5035887;28;20493;-69
2023/06/25 09:27:10;;;;;;;5.68;4.25;;;27.90;99.90;;;;;;5037471;28;20033;-68
2023/06/25 09:29:37;;;;;;;6.70;4.45;;;27.90;99.90;;;;;;5037357;28;20024;-68
2023/06/25 09:32:09;;;;;;;9.65;4.50;;;27.90;99.90;;;;;;5036813;28;20072;-68
2023/06/25 09:34:37;;;;;;;6.18;4.07;;;28.00;99.90;;;;;;5037253;28;20030;-68
2023/06/25 09:37:06;;;;;;;5.47;4.00;;;28.00;99.90;;;;;;5035631;28;20033;-68
2023/06/25 09:39:31;;;;;;;7.07;4.43;;;28.10;99.90;;;;;;5035727;28;20083;-68
2023/06/25 09:42:00;;;;;;;5.97;4.03;;;28.00;99.90;;;;;;5036951;28;20021;-68
2023/06/25 09:44:27;;;;;;;6.32;4.03;;;28.20;99.90;;;;;;5036918;28;20082;-68
2023/06/25 09:47:00;;;;;;;4.78;3.60;;;28.30;99.90;;;;;;5036680;28;20021;-68
2023/06/25 09:49:30;;;;;;;5.10;3.85;;;28.40;99.90;;;;;;5036815;28;20024;-69
2023/06/25 09:51:59;;;;;;;4.85;3.30;;;28.40;99.60;;;;;;5036955;28;20029;-68
2023/06/25 09:54:26;;;;;;;6.35;3.70;;;28.50;99.50;;;;;;5036748;28;20029;-68
2023/06/25 09:56:55;;;;;;;6.45;3.78;;;28.50;99.90;;;;;;5036799;28;20029;-68
2023/06/25 09:59:21;;;;;;;6.40;4.53;;;28.50;99.00;;;;;;5036638;28;20401;-68
2023/06/25 10:01:47;;;;;;;5.90;3.95;;;28.50;98.70;;;;;;5035397;28;20033;-68
2023/06/25 10:04:12;;;;;;;4.53;3.50;;;28.60;99.90;;;;;;5024226;28;20022;-68
2023/06/25 10:06:38;;;;;;;5.68;3.83;;;28.60;98.10;;;;;;5029283;28;20087;-68
2023/06/25 10:09:05;;;;;;;5.65;4.03;;;28.80;99.60;;;;;;5033979;28;20021;-68
2023/06/25 10:11:31;;;;;;;5.47;3.92;;;28.70;95.40;;;;;;5036574;28;20080;-68
2023/06/25 10:13:58;;;;;;;6.72;4.22;;;28.80;94.90;;;;;;5035567;28;20059;-68
2023/06/25 10:16:29;;;;;;;5.63;3.75;;;28.70;97.10;;;;;;5036354;28;20037;-68
2023/06/25 10:18:56;;;;;;;5.50;3.70;;;28.80;96.50;;;;;;5036579;28;20028;-68
2023/06/25 10:21:23;;;;;;;7.28;4.68;;;29.00;98.60;;;;;;5035217;28;20480;-68
2023/06/25 10:24:00;;;;;;;8.90;4.05;;;29.00;97.20;;;;;;5036566;28;20026;-68
2023/06/25 10:26:35;;;;;;;7.32;3.90;;;28.90;96.90;;;;;;5040192;28;20017;-68
2023/06/25 10:29:06;;;;;;;5.35;3.60;;;28.90;93.70;;;;;;5039363;28;20148;-69
2023/06/25 10:31:43;;;;;;;7.88;4.22;;;29.00;94.50;;;;;;5040251;28;20017;-68
2023/06/25 10:34:10;;;;;;;9.18;3.90;;;29.00;94.70;;;;;;5040544;28;20099;-68
2023/06/25 10:36:36;;;;;;;6.53;4.07;;;29.10;96.10;;;;;;5040309;28;20021;-68
2023/06/25 10:39:03;;;;;;;8.60;4.13;;;29.30;95.30;;;;;;5040585;28;20040;-69
2023/06/25 10:41:30;;;;;;;5.75;3.95;;;29.40;96.00;;;;;;5040067;28;20242;-68
2023/06/25 10:43:57;;;;;;;7.40;4.20;;;29.50;93.20;;;;;;5040275;28;20029;-68
2023/06/25 10:46:30;;;;;;;4.75;3.45;;;29.50;93.30;;;;;;5038558;28;20040;-68
2023/06/25 10:48:58;;;;;;;5.53;3.67;;;29.30;93.00;;;;;;5040405;28;20025;-69
2023/06/25 10:51:25;;;;;;;4.78;3.45;;;29.20;93.10;;;;;;5038780;28;20024;-68
2023/06/25 10:53:52;;;;;;;5.22;4.00;;;29.20;94.00;;;;;;5040277;28;20017;-68
2023/06/25 10:56:18;;;;;;;9.35;4.22;;;29.30;95.50;;;;;;5027701;28;20025;-69
2023/06/25 10:58:44;;;;;;;5.68;3.40;;;29.40;92.40;;;;;;5039898;28;20516;-69
2023/06/25 11:01:10;;;;;;;6.13;3.80;;;29.40;92.70;;;;;;5039873;28;20029;-68
2023/06/25 11:03:37;;;;;;;6.68;4.38;;;29.50;95.00;;;;;;5039830;28;20041;-68
2023/06/25 11:06:02;;;;;;;11.98;5.15;;;29.60;93.10;;;;;;5039781;28;20472;-68
2023/06/25 11:08:28;;;;;;;5.53;3.65;;;29.70;97.60;;;;;;5039806;28;20021;-68
2023/06/25 11:10:54;;;;;;;7.68;4.30;;;29.80;94.30;;;;;;5039633;28;20088;-69
2023/06/25 11:13:20;;;;;;;8.35;4.15;;;29.90;91.70;;;;;;5039585;28;20033;-69
2023/06/25 11:15:45;;;;;;;5.93;3.70;;;29.70;92.00;;;;;;5039363;28;20033;-68
2023/06/25 11:18:11;;;;;;;5.22;4.03;;;29.80;94.50;;;;;;5039638;28;20021;-68
2023/06/25 11:20:41;;;;;;;6.53;3.58;;;29.90;94.10;;;;;;5039372;28;20053;-69
2023/06/25 11:23:10;;;;;;;6.22;3.65;;;30.00;91.90;;;;;;5039491;28;20402;-69
2023/06/25 11:25:36;;;;;;;7.15;3.90;;;30.00;90.90;;;;;;5038064;28;20037;-68
2023/06/25 11:28:05;;;;;;;5.47;4.10;;;29.90;92.20;;;;;;5039356;28;20010;-69
2023/06/25 11:30:31;;;;;;;5.53;3.60;;;29.90;91.70;;;;;;5039024;28;20052;-68
2023/06/25 11:33:15;;;;;;;7.30;3.80;;;30.00;92.80;;;;;;5039332;28;20029;-68
2023/06/25 11:35:41;;;;;;;5.93;3.95;;;30.20;90.20;;;;;;5036746;28;20063;-69
2023/06/25 11:38:07;;;;;;;6.10;3.67;;;30.20;90.20;;;;;;5039014;28;20026;-68
2023/06/25 11:40:36;;;;;;;5.30;3.67;;;30.20;89.50;;;;;;5038988;28;20032;-69
2023/06/25 11:43:02;;;;;;;6.07;3.58;;;30.20;88.70;;;;;;5039096;28;20029;-68
2023/06/25 11:45:42;;;;;;;7.07;4.07;;;30.30;89.50;;;;;;5038877;28;20026;-68
2023/06/25 11:48:15;;;;;;;;;;;30.40;90.90;;;;;;5039500;28;20111;-69
2023/06/25 11:50:45;;;;;;;4.90;3.40;;;30.40;90.00;;;;;;5037710;28;19933;-69
2023/06/25 11:53:12;;;;;;;7.47;3.88;;;30.40;91.40;;;;;;5038858;28;20029;-69
2023/06/25 11:55:38;;;;;;;5.60;3.85;;;30.50;89.30;;;;;;5038933;28;20036;-69
2023/06/25 11:58:04;;;;;;;5.45;3.63;;;30.60;90.10;;;;;;5038705;28;20029;-69
2023/06/25 12:00:30;;;;;;;5.68;4.20;;;30.50;89.20;;;;;;5038627;28;20549;-69
2023/06/25 12:02:55;;;;;;;5.50;4.05;;;30.50;90.80;;;;;;5038488;28;20029;-68
2023/06/25 12:05:21;;;;;;;6.72;4.60;;;30.50;90.60;;;;;;5038772;28;20029;-68
2023/06/25 12:07:47;;;;;;;6.30;3.70;;;30.60;90.40;;;;;;5037665;28;20043;-68
2023/06/25 12:10:12;;;;;;;7.03;3.65;;;30.60;89.60;;;;;;5038557;28;20055;-68
2023/06/25 12:12:38;;;;;;;7.40;4.50;;;30.70;88.90;;;;;;5027590;28;20131;-68
2023/06/25 12:15:04;;;;;;;5.35;4.00;;;30.80;88.90;;;;;;5038474;28;20505;-68
2023/06/25 12:17:30;;;;;;;7.55;4.47;;;30.80;88.60;;;;;;5036915;28;20033;-69
2023/06/25 12:19:55;;;;;;;6.38;3.72;;;30.80;88.70;;;;;;5038464;28;20075;-68
2023/06/25 12:22:21;;;;;;;5.38;4.15;;;30.80;87.70;;;;;;5038353;28;20048;-69
2023/06/25 12:24:46;;;;;;;5.60;4.00;;;30.90;90.10;;;;;;5038376;28;20081;-68
2023/06/25 12:27:12;;;;;;;5.15;3.78;;;30.90;88.20;;;;;;5038067;28;20024;-69
2023/06/25 12:29:38;;;;;;;8.90;3.72;;;30.90;87.90;;;;;;5038344;28;20113;-69
2023/06/25 12:32:04;;;;;;;5.45;4.15;;;30.90;86.00;;;;;;5037965;28;20108;-68
2023/06/25 12:34:29;;;;;;;8.02;4.13;;;31.00;87.70;;;;;;5038383;28;20028;-68
2023/06/25 12:36:55;;;;;;;5.72;4.07;;;31.00;87.00;;;;;;5038161;28;20022;-69
2023/06/25 12:39:21;;;;;;;7.20;4.00;;;31.00;85.50;;;;;;5038197;28;20498;-68
2023/06/25 12:41:47;;;;;;;6.18;4.10;;;31.00;85.10;;;;;;5037753;28;20569;-68